createdAt,value
2023-09-15T00:00:49.248Z,12.45
2023-09-15T00:01:49.259Z,12.45
2023-09-15T00:02:49.260Z,12.43
2023-09-15T00:03:49.253Z,12.43
2023-09-15T00:04:49.233Z,12.42
2023-09-15T00:05:49.162Z,12.40
2023-09-15T00:06:49.181Z,12.40
2023-09-15T00:07:49.162Z,12.39
2023-09-15T00:08:49.319Z,12.38
2023-09-15T00:09:49.185Z,12.39
2023-09-15T00:10:49.142Z,12.39
2023-09-15T00:11:49.168Z,12.38
2023-09-15T00:12:49.139Z,12.38
2023-09-15T00:13:49.184Z,12.35
2023-09-15T00:14:49.073Z,12.35
2023-09-15T00:15:49.078Z,12.33
2023-09-15T00:16:49.158Z,12.32
2023-09-15T00:17:49.094Z,12.32
2023-09-15T00:18:49.480Z,12.33
2023-09-15T00:19:49.005Z,12.30
2023-09-15T00:20:48.994Z,12.30
2023-09-15T00:21:49.270Z,12.27
2023-09-15T00:22:49.005Z,12.25
2023-09-15T00:23:49.019Z,12.25
2023-09-15T00:24:49.012Z,12.24
2023-09-15T00:25:48.946Z,12.24
2023-09-15T00:26:48.962Z,12.22
2023-09-15T00:27:49.032Z,12.21
2023-09-15T00:28:49.123Z,12.21
2023-09-15T00:29:48.923Z,12.20
2023-09-15T00:30:48.936Z,12.21
2023-09-15T00:31:48.963Z,12.18
2023-09-15T00:32:48.971Z,12.15
2023-09-15T00:33:48.895Z,12.14
2023-09-15T00:34:48.881Z,12.13
2023-09-15T00:35:55.377Z,12.13
2023-09-15T00:36:48.825Z,12.13
2023-09-15T00:37:48.792Z,12.14
2023-09-15T00:38:48.924Z,12.09
2023-09-15T00:39:48.802Z,12.09
2023-09-15T00:40:48.763Z,12.09
2023-09-15T00:41:48.744Z,12.07
2023-09-15T00:42:48.758Z,12.10
2023-09-15T00:43:48.729Z,12.09
2023-09-15T00:44:48.720Z,12.09
2023-09-15T00:45:48.777Z,12.07
2023-09-15T00:46:48.806Z,12.07
2023-09-15T00:47:48.706Z,12.07
2023-09-15T00:48:48.981Z,12.06
2023-09-15T00:49:48.675Z,12.05
2023-09-15T00:50:48.658Z,12.03
2023-09-15T00:51:48.668Z,12.03
2023-09-15T00:52:48.625Z,12.02
2023-09-15T00:53:48.626Z,12.02
2023-09-15T00:54:48.659Z,11.99
2023-09-15T00:55:48.610Z,11.97
2023-09-15T00:56:48.596Z,11.97
2023-09-15T00:57:48.604Z,11.96
2023-09-15T00:58:48.872Z,11.95
2023-09-15T00:59:48.582Z,11.95
2023-09-15T01:00:48.602Z,11.95
2023-09-15T01:01:48.599Z,11.95
2023-09-15T01:04:16.580Z,11.90
2023-09-15T01:04:21.928Z,11.88
2023-09-15T01:05:21.925Z,11.87
2023-09-15T01:06:21.872Z,11.86
2023-09-15T01:07:21.875Z,11.86
2023-09-15T01:08:21.883Z,11.86
2023-09-15T01:09:21.856Z,11.86
2023-09-15T01:10:21.996Z,11.84
2023-09-15T01:11:21.840Z,11.83
2023-09-15T01:12:21.827Z,11.84
2023-09-15T01:13:21.886Z,11.83
2023-09-15T01:14:21.806Z,11.84
2023-09-15T01:15:21.794Z,11.81
2023-09-15T01:16:21.873Z,11.81
2023-09-15T01:17:21.780Z,11.80
2023-09-15T01:18:21.760Z,11.80
2023-09-15T01:19:21.813Z,11.80
2023-09-15T01:20:21.729Z,11.79
2023-09-15T01:21:21.727Z,11.79
2023-09-15T01:22:21.745Z,11.79
2023-09-15T01:23:21.696Z,11.79
2023-09-15T01:24:21.703Z,11.76
2023-09-15T01:25:21.743Z,11.76
2023-09-15T01:26:21.666Z,11.74
2023-09-15T01:27:21.660Z,11.74
2023-09-15T01:28:21.658Z,11.72
2023-09-15T01:29:21.643Z,11.69
2023-09-15T01:30:21.642Z,11.69
2023-09-15T01:31:21.679Z,11.68
2023-09-15T01:32:21.595Z,11.66
2023-09-15T01:33:21.577Z,11.68
2023-09-15T01:34:21.580Z,11.66
2023-09-15T01:35:21.589Z,11.66
2023-09-15T01:36:21.560Z,11.66
2023-09-15T01:37:21.595Z,11.68
2023-09-15T01:38:21.530Z,11.66
2023-09-15T01:39:21.537Z,11.68
2023-09-15T01:40:21.551Z,11.63
2023-09-15T01:41:21.509Z,11.63
2023-09-15T01:42:21.476Z,11.61
2023-09-15T01:43:21.545Z,11.61
2023-09-15T01:44:21.468Z,11.62
2023-09-15T01:45:21.486Z,11.58
2023-09-15T01:46:21.541Z,11.59
2023-09-15T01:47:21.438Z,11.58
2023-09-15T01:48:21.427Z,11.59
2023-09-15T01:49:21.440Z,11.58
2023-09-15T01:50:21.407Z,11.56
2023-09-15T01:51:21.387Z,11.59
2023-09-15T01:52:21.497Z,11.58
2023-09-15T01:53:21.369Z,11.56
2023-09-15T01:54:21.363Z,11.54
2023-09-15T01:55:21.379Z,11.58
2023-09-15T01:56:21.327Z,11.56
2023-09-15T01:57:21.328Z,11.54
2023-09-15T01:58:21.324Z,11.56
2023-09-15T01:59:21.324Z,11.54
2023-09-15T02:00:21.314Z,11.54
2023-09-15T02:01:21.392Z,11.56
2023-09-15T02:02:21.294Z,11.54
2023-09-15T02:03:21.333Z,11.54
2023-09-15T02:04:21.283Z,11.54
2023-09-15T02:05:21.274Z,11.54
2023-09-15T02:06:21.245Z,11.51
2023-09-15T02:07:21.263Z,11.51
2023-09-15T02:08:21.193Z,11.50
2023-09-15T02:09:21.214Z,11.48
2023-09-15T02:10:21.218Z,11.47
2023-09-15T02:11:21.207Z,11.41
2023-09-15T02:12:21.191Z,11.41
2023-09-15T02:13:21.173Z,11.41
2023-09-15T02:14:21.135Z,11.41
2023-09-15T02:15:21.128Z,11.43
2023-09-15T02:16:21.221Z,11.40
2023-09-15T02:17:21.110Z,11.41
2023-09-15T02:18:21.082Z,11.41
2023-09-15T02:19:21.108Z,11.40
2023-09-15T02:20:21.067Z,11.41
2023-09-15T02:21:21.094Z,11.43
2023-09-15T02:22:21.066Z,11.43
2023-09-15T02:23:21.054Z,11.43
2023-09-15T02:24:21.033Z,11.41
2023-09-15T02:25:21.058Z,11.44
2023-09-15T02:26:21.016Z,11.40
2023-09-15T02:27:20.996Z,11.41
2023-09-15T02:28:21.049Z,11.41
2023-09-15T02:29:20.965Z,11.40
2023-09-15T02:30:20.953Z,11.38
2023-09-15T02:31:21.028Z,11.38
2023-09-15T02:32:20.941Z,11.35
2023-09-15T02:33:20.944Z,11.33
2023-09-15T02:34:20.946Z,11.33
2023-09-15T02:35:20.911Z,11.32
2023-09-15T02:36:20.932Z,11.33
2023-09-15T02:37:20.951Z,11.29
2023-09-15T02:38:20.915Z,11.29
2023-09-15T02:39:20.870Z,11.29
2023-09-15T02:40:20.891Z,11.28
2023-09-15T02:41:20.866Z,11.28
2023-09-15T02:42:20.833Z,11.26
2023-09-15T02:43:20.860Z,11.25
2023-09-15T02:44:20.813Z,11.23
2023-09-15T02:45:20.792Z,11.25
2023-09-15T02:46:20.863Z,11.23
2023-09-15T02:47:20.765Z,11.22
2023-09-15T02:48:20.762Z,11.20
2023-09-15T02:49:20.783Z,11.22
2023-09-15T02:50:20.739Z,11.20
2023-09-15T02:51:20.736Z,11.22
2023-09-15T02:52:20.783Z,11.22
2023-09-15T02:53:20.703Z,11.22
2023-09-15T02:54:20.728Z,11.20
2023-09-15T02:55:20.716Z,11.20
2023-09-15T02:56:20.697Z,11.22
2023-09-15T02:57:20.656Z,11.20
2023-09-15T02:58:20.705Z,11.19
2023-09-15T02:59:20.667Z,11.22
2023-09-15T03:00:20.645Z,11.23
2023-09-15T03:01:20.703Z,11.20
2023-09-15T03:02:20.633Z,11.22
2023-09-15T03:03:20.663Z,11.22
2023-09-15T03:04:20.657Z,11.22
2023-09-15T03:05:20.565Z,11.22
2023-09-15T03:06:20.613Z,11.22
2023-09-15T03:07:20.603Z,11.23
2023-09-15T03:08:20.537Z,11.22
2023-09-15T03:09:20.518Z,11.23
2023-09-15T03:10:20.577Z,11.19
2023-09-15T03:11:20.498Z,11.19
2023-09-15T03:12:20.515Z,11.14
2023-09-15T03:13:20.527Z,11.12
2023-09-15T03:14:20.492Z,11.11
2023-09-15T03:15:20.471Z,11.12
2023-09-15T03:16:20.672Z,11.12
2023-09-15T03:17:20.588Z,11.14
2023-09-15T03:18:20.496Z,11.14
2023-09-15T03:19:20.469Z,11.14
2023-09-15T03:20:20.414Z,11.15
2023-09-15T03:21:20.393Z,11.15
2023-09-15T03:22:20.433Z,11.19
2023-09-15T03:23:20.395Z,11.20
2023-09-15T03:24:20.370Z,11.19
2023-09-15T03:25:20.380Z,11.22
2023-09-15T03:26:20.355Z,11.22
2023-09-15T03:27:20.350Z,11.22
2023-09-15T03:28:20.391Z,11.19
2023-09-15T03:29:20.321Z,11.20
2023-09-15T03:30:20.332Z,11.23
2023-09-15T03:31:20.425Z,11.20
2023-09-15T03:32:20.303Z,11.23
2023-09-15T03:33:20.273Z,11.23
2023-09-15T03:34:20.346Z,11.22
2023-09-15T03:35:20.249Z,11.20
2023-09-15T03:36:20.235Z,11.20
2023-09-15T03:37:20.254Z,11.20
2023-09-15T03:38:20.249Z,11.22
2023-09-15T03:39:20.196Z,11.23
2023-09-15T03:40:20.295Z,11.20
2023-09-15T03:41:20.206Z,11.22
2023-09-15T03:42:20.221Z,11.22
2023-09-15T03:43:20.197Z,11.22
2023-09-15T03:44:20.153Z,11.23
2023-09-15T03:45:20.159Z,11.22
2023-09-15T03:46:20.215Z,11.20
2023-09-15T03:47:20.209Z,11.22
2023-09-15T03:48:20.118Z,11.20
2023-09-15T03:49:20.156Z,11.22
2023-09-15T03:50:20.098Z,11.20
2023-09-15T03:51:20.082Z,11.22
2023-09-15T03:52:20.136Z,11.23
2023-09-15T03:53:20.074Z,11.23
2023-09-15T03:54:20.077Z,11.25
2023-09-15T03:55:20.069Z,11.26
2023-09-15T03:56:20.032Z,11.26
2023-09-15T03:57:20.044Z,11.26
2023-09-15T03:58:20.090Z,11.25
2023-09-15T03:59:20.000Z,11.29
2023-09-15T04:00:20.002Z,11.28
2023-09-15T04:01:20.065Z,11.29
2023-09-15T04:02:19.982Z,11.29
2023-09-15T04:03:20.080Z,11.32
2023-09-15T04:04:20.036Z,11.33
2023-09-15T04:05:19.935Z,11.33
2023-09-15T04:06:19.939Z,11.33
2023-09-15T04:07:19.959Z,11.33
2023-09-15T04:08:19.922Z,11.33
2023-09-15T04:09:19.932Z,11.33
2023-09-15T04:10:20.148Z,11.38
2023-09-15T04:11:19.876Z,11.40
2023-09-15T04:12:19.869Z,11.41
2023-09-15T04:13:19.908Z,11.46
2023-09-15T04:14:19.848Z,11.47
2023-09-15T04:15:19.838Z,11.48
2023-09-15T04:16:19.880Z,11.50
2023-09-15T04:17:19.820Z,11.53
2023-09-15T04:18:19.810Z,11.53
2023-09-15T04:19:19.835Z,11.56
2023-09-15T04:20:27.980Z,11.58
2023-09-15T04:21:19.763Z,11.59
2023-09-15T04:22:19.817Z,11.59
2023-09-15T04:23:19.760Z,11.58
2023-09-15T04:24:19.757Z,11.58
2023-09-15T04:25:19.748Z,11.61
2023-09-15T04:26:19.724Z,11.59
2023-09-15T04:27:19.714Z,11.59
2023-09-15T04:28:19.736Z,11.59
2023-09-15T04:29:19.667Z,11.62
2023-09-15T04:30:19.657Z,11.65
2023-09-15T04:31:19.711Z,11.63
2023-09-15T04:32:19.656Z,11.66
2023-09-15T04:33:19.640Z,11.65
2023-09-15T04:34:19.666Z,11.66
2023-09-15T04:35:19.626Z,11.63
2023-09-15T04:36:19.606Z,11.62
2023-09-15T04:37:19.634Z,11.62
2023-09-15T04:38:19.585Z,11.62
2023-09-15T04:39:19.563Z,11.62
2023-09-15T04:40:19.616Z,11.62
2023-09-15T04:41:19.556Z,11.63
2023-09-15T04:42:19.559Z,11.65
2023-09-15T04:43:19.588Z,11.63
2023-09-15T04:44:19.520Z,11.63
2023-09-15T04:45:19.522Z,11.63
2023-09-15T04:46:19.570Z,11.66
2023-09-15T04:47:19.509Z,11.63
2023-09-15T04:48:19.477Z,11.65
2023-09-15T04:49:19.500Z,11.65
2023-09-15T04:50:19.476Z,11.65
2023-09-15T04:51:19.443Z,11.66
2023-09-15T04:52:19.474Z,11.66
2023-09-15T04:53:19.422Z,11.68
2023-09-15T04:54:19.418Z,11.66
2023-09-15T04:55:19.428Z,11.68
2023-09-15T04:56:19.384Z,11.68
2023-09-15T04:57:19.370Z,11.66
2023-09-15T04:58:19.420Z,11.69
2023-09-15T04:59:19.349Z,11.68
2023-09-15T05:00:19.363Z,11.68
2023-09-15T05:01:19.375Z,11.69
2023-09-15T05:02:19.334Z,11.69
2023-09-15T05:03:19.435Z,11.71
2023-09-15T05:04:19.382Z,11.71
2023-09-15T05:05:19.332Z,11.71
2023-09-15T05:06:19.277Z,11.71
2023-09-15T05:07:19.279Z,11.74
2023-09-15T05:08:19.265Z,11.72
2023-09-15T05:09:19.241Z,11.74
2023-09-15T05:10:19.276Z,11.76
2023-09-15T05:11:19.221Z,11.74
2023-09-15T05:12:19.203Z,11.77
2023-09-15T05:13:19.244Z,11.79
2023-09-15T05:14:19.179Z,11.80
2023-09-15T05:15:19.180Z,11.81
2023-09-15T05:16:19.256Z,11.81
2023-09-15T05:17:19.143Z,11.84
2023-09-15T05:18:19.157Z,11.87
2023-09-15T05:19:19.158Z,11.88
2023-09-15T05:20:19.121Z,11.91
2023-09-15T05:21:19.108Z,11.90
2023-09-15T05:22:19.157Z,11.91
2023-09-15T05:23:19.150Z,11.95
2023-09-15T05:24:19.069Z,11.91
2023-09-15T05:25:19.095Z,11.96
2023-09-15T05:26:19.045Z,11.97
2023-09-15T05:27:19.030Z,11.99
2023-09-15T05:28:19.085Z,12.00
2023-09-15T05:29:19.011Z,12.02
2023-09-15T05:30:19.153Z,12.03
2023-09-15T05:31:19.226Z,12.03
2023-09-15T05:32:18.987Z,12.06
2023-09-15T05:33:19.016Z,12.13
2023-09-15T05:34:18.983Z,12.15
2023-09-15T05:35:18.965Z,12.15
2023-09-15T05:36:19.440Z,12.18
2023-09-15T05:37:18.968Z,12.20
2023-09-15T05:38:18.944Z,12.22
2023-09-15T05:39:18.905Z,12.25
2023-09-15T05:40:18.936Z,12.27
2023-09-15T05:41:18.881Z,12.28
2023-09-15T05:42:18.864Z,12.32
2023-09-15T05:43:18.896Z,12.33
2023-09-15T05:44:18.849Z,12.33
2023-09-15T05:45:18.858Z,12.36
2023-09-15T05:46:18.935Z,12.38
2023-09-15T05:47:18.859Z,12.40
2023-09-15T05:48:18.851Z,12.39
2023-09-15T05:49:18.825Z,12.42
2023-09-15T05:50:18.787Z,12.43
2023-09-15T05:51:18.771Z,12.46
2023-09-15T05:52:18.851Z,12.46
2023-09-15T05:53:18.791Z,12.47
2023-09-15T05:54:18.748Z,12.47
2023-09-15T05:55:18.764Z,12.50
2023-09-15T05:56:18.751Z,12.54
2023-09-15T05:57:18.706Z,12.54
2023-09-15T05:58:18.760Z,12.54
2023-09-15T05:59:18.673Z,12.57
2023-09-15T06:00:18.740Z,12.60
2023-09-15T06:01:18.736Z,12.63
2023-09-15T06:02:18.892Z,12.68
2023-09-15T06:03:18.699Z,12.68
2023-09-15T06:04:18.673Z,12.69
2023-09-15T06:05:18.616Z,12.69
2023-09-15T06:06:18.632Z,12.75
2023-09-15T06:07:18.657Z,12.75
2023-09-15T06:08:18.659Z,12.78
2023-09-15T06:09:18.574Z,12.80
2023-09-15T06:10:18.597Z,12.83
2023-09-15T06:11:18.567Z,12.85
2023-09-15T06:12:18.536Z,12.90
2023-09-15T06:13:18.583Z,12.93
2023-09-15T06:14:18.543Z,12.97
2023-09-15T06:15:18.504Z,13.03
2023-09-15T06:16:18.561Z,13.06
2023-09-15T06:17:18.542Z,13.11
2023-09-15T06:18:18.498Z,13.15
2023-09-15T06:19:18.470Z,13.18
2023-09-15T06:20:18.472Z,13.22
2023-09-15T06:21:18.448Z,13.26
2023-09-15T06:22:18.504Z,13.29
2023-09-15T06:23:18.439Z,13.31
2023-09-15T06:24:18.413Z,13.35
2023-09-15T06:25:18.491Z,13.37
2023-09-15T06:26:18.399Z,13.38
2023-09-15T06:27:18.379Z,13.37
2023-09-15T06:28:22.000Z,13.39
2023-09-15T06:29:18.494Z,13.45
2023-09-15T06:30:18.361Z,13.47
2023-09-15T06:31:18.425Z,13.52
2023-09-15T06:32:18.342Z,13.53
2023-09-15T06:33:18.329Z,13.55
2023-09-15T06:34:18.357Z,13.60
2023-09-15T06:35:18.300Z,13.64
2023-09-15T06:37:35.385Z,13.70
2023-09-15T06:38:36.311Z,13.72
2023-09-15T06:39:36.240Z,13.77
2023-09-15T06:40:36.211Z,13.82
2023-09-15T06:41:36.195Z,13.86
2023-09-15T06:42:36.188Z,13.92
2023-09-15T06:43:36.436Z,13.95
2023-09-15T06:44:36.252Z,13.97
2023-09-15T06:45:36.299Z,14.01
2023-09-15T06:46:36.169Z,14.03
2023-09-15T06:47:36.178Z,14.05
2023-09-15T06:48:36.161Z,14.07
2023-09-15T06:49:36.138Z,14.11
2023-09-15T06:50:36.139Z,14.14
2023-09-15T06:51:36.091Z,14.18
2023-09-15T06:52:36.216Z,14.19
2023-09-15T06:53:36.139Z,14.23
2023-09-15T06:54:36.074Z,14.23
2023-09-15T06:55:36.092Z,14.26
2023-09-15T06:56:36.043Z,14.29
2023-09-15T06:57:36.106Z,14.32
2023-09-15T06:58:36.542Z,14.40
2023-09-15T06:59:36.144Z,14.43
2023-09-15T07:00:36.013Z,14.45
2023-09-15T07:01:36.027Z,14.48
2023-09-15T07:02:36.041Z,14.51
2023-09-15T07:03:35.951Z,14.56
2023-09-15T07:04:36.013Z,14.61
2023-09-15T07:05:35.948Z,14.63
2023-09-15T07:06:35.960Z,14.69
2023-09-15T07:07:36.069Z,14.73
2023-09-15T07:08:35.935Z,14.78
2023-09-15T07:09:35.966Z,14.81
2023-09-15T07:10:35.902Z,14.87
2023-09-15T07:11:35.900Z,14.91
2023-09-15T07:12:35.889Z,14.95
2023-09-15T07:13:35.834Z,14.97
2023-09-15T07:14:35.871Z,15.04
2023-09-15T07:15:35.835Z,15.07
2023-09-15T07:16:35.959Z,15.07
2023-09-15T07:17:35.849Z,15.14
2023-09-15T07:18:35.837Z,15.18
2023-09-15T07:19:35.819Z,15.18
2023-09-15T07:20:35.774Z,15.22
2023-09-15T07:21:35.807Z,15.27
2023-09-15T07:22:35.832Z,15.30
2023-09-15T07:23:35.745Z,15.36
2023-09-15T07:24:35.766Z,15.37
2023-09-15T07:25:35.793Z,15.42
2023-09-15T07:26:35.740Z,15.43
2023-09-15T07:27:35.693Z,15.48
2023-09-15T07:28:35.695Z,15.55
2023-09-15T07:29:35.689Z,15.60
2023-09-15T07:30:35.650Z,15.65
2023-09-15T07:31:35.772Z,15.72
2023-09-15T07:32:35.711Z,15.72
2023-09-15T07:33:35.639Z,15.77
2023-09-15T07:34:35.631Z,15.80
2023-09-15T07:35:35.604Z,15.83
2023-09-15T07:36:35.638Z,15.85
2023-09-15T07:37:35.591Z,15.91
2023-09-15T07:38:35.571Z,15.95
2023-09-15T07:39:35.574Z,15.98
2023-09-15T07:40:35.595Z,16.02
2023-09-15T07:41:35.606Z,16.09
2023-09-15T07:42:35.517Z,16.12
2023-09-15T07:43:35.513Z,16.17
2023-09-15T07:44:35.512Z,16.25
2023-09-15T07:45:35.518Z,16.31
2023-09-15T07:46:35.600Z,16.32
2023-09-15T07:47:35.475Z,16.38
2023-09-15T07:48:35.526Z,16.44
2023-09-15T07:49:35.564Z,16.49
2023-09-15T07:50:35.460Z,16.53
2023-09-15T07:51:35.419Z,16.57
2023-09-15T07:52:35.430Z,16.62
2023-09-15T07:53:35.377Z,16.66
2023-09-15T07:54:35.389Z,16.69
2023-09-15T07:55:35.469Z,16.75
2023-09-15T07:56:35.399Z,16.80
2023-09-15T07:57:35.370Z,16.86
2023-09-15T07:58:35.347Z,16.89
2023-09-15T07:59:35.324Z,16.91
2023-09-15T08:00:35.318Z,16.94
2023-09-15T08:01:35.332Z,16.98
2023-09-15T08:02:35.353Z,17.02
2023-09-15T08:03:35.350Z,17.04
2023-09-15T08:04:35.344Z,17.06
2023-09-15T08:05:35.268Z,17.11
2023-09-15T08:06:35.270Z,17.16
2023-09-15T08:07:35.271Z,17.20
2023-09-15T08:08:35.421Z,17.20
2023-09-15T08:09:35.216Z,17.22
2023-09-15T08:10:35.292Z,17.26
2023-09-15T08:11:35.200Z,17.30
2023-09-15T08:12:36.504Z,17.30
2023-09-15T08:13:35.191Z,17.37
2023-09-15T08:14:35.193Z,17.35
2023-09-15T08:15:35.172Z,17.41
2023-09-15T08:16:35.189Z,17.49
2023-09-15T08:17:35.252Z,17.51
2023-09-15T08:18:35.128Z,17.54
2023-09-15T08:19:35.144Z,17.57
2023-09-15T08:20:35.091Z,17.60
2023-09-15T08:21:35.326Z,17.67
2023-09-15T08:22:35.125Z,17.70
2023-09-15T08:23:35.049Z,17.71
2023-09-15T08:24:35.074Z,17.75
2023-09-15T08:25:35.123Z,17.80
2023-09-15T08:26:43.589Z,17.85
2023-09-15T08:27:35.034Z,17.91
2023-09-15T08:28:35.086Z,17.94
2023-09-15T08:29:35.015Z,17.97
2023-09-15T08:30:34.993Z,18.01
2023-09-15T08:31:35.031Z,18.04
2023-09-15T08:32:34.995Z,18.09
2023-09-15T08:33:34.951Z,18.13
2023-09-15T08:34:34.983Z,18.16
2023-09-15T08:35:34.955Z,18.20
2023-09-15T08:36:34.984Z,18.25
2023-09-15T08:37:34.955Z,18.25
2023-09-15T08:38:34.973Z,18.31
2023-09-15T08:39:34.904Z,18.34
2023-09-15T08:40:34.943Z,18.40
2023-09-15T08:41:34.912Z,18.41
2023-09-15T08:42:34.954Z,18.46
2023-09-15T08:43:34.968Z,18.44
2023-09-15T08:44:34.896Z,18.48
2023-09-15T08:45:34.874Z,18.49
2023-09-15T08:46:34.997Z,18.52
2023-09-15T08:47:34.822Z,18.53
2023-09-15T08:48:34.924Z,18.52
2023-09-15T08:49:34.925Z,18.56
2023-09-15T08:50:34.900Z,18.59
2023-09-15T08:51:34.898Z,18.60
2023-09-15T08:52:34.952Z,18.66
2023-09-15T08:53:34.762Z,18.73
2023-09-15T08:54:34.907Z,18.78
2023-09-15T08:55:34.892Z,18.85
2023-09-15T08:56:34.735Z,18.89
2023-09-15T08:57:34.678Z,18.93
2023-09-15T08:58:34.712Z,18.96
2023-09-15T08:59:34.673Z,18.99
2023-09-15T09:00:34.697Z,19.04
2023-09-15T09:01:34.739Z,19.07
2023-09-15T09:02:34.728Z,19.12
2023-09-15T09:03:34.686Z,19.16
2023-09-15T09:04:34.682Z,19.19
2023-09-15T09:05:34.662Z,19.19
2023-09-15T09:06:34.614Z,19.23
2023-09-15T09:07:34.600Z,19.19
2023-09-15T09:08:34.588Z,19.24
2023-09-15T09:09:34.534Z,19.31
2023-09-15T09:10:34.643Z,19.33
2023-09-15T09:11:34.542Z,19.36
2023-09-15T09:12:34.544Z,19.39
2023-09-15T09:13:43.783Z,19.41
2023-09-15T09:14:34.524Z,19.45
2023-09-15T09:15:34.513Z,19.49
2023-09-15T09:16:34.633Z,19.52
2023-09-15T09:17:34.518Z,19.56
2023-09-15T09:18:34.524Z,19.59
2023-09-15T09:19:34.507Z,19.62
2023-09-15T09:20:34.457Z,19.64
2023-09-15T09:21:34.452Z,19.70
2023-09-15T09:22:34.452Z,19.70
2023-09-15T09:23:34.405Z,19.73
2023-09-15T09:24:34.392Z,19.78
2023-09-15T09:25:34.437Z,19.81
2023-09-15T09:26:34.361Z,19.84
2023-09-15T09:27:34.408Z,19.86
2023-09-15T09:28:34.415Z,19.91
2023-09-15T09:29:34.328Z,19.96
2023-09-15T09:30:34.367Z,19.99
2023-09-15T09:31:34.395Z,20.00
2023-09-15T09:32:34.351Z,20.07
2023-09-15T09:33:34.292Z,20.10
2023-09-15T09:34:47.164Z,20.17
2023-09-15T09:35:34.320Z,20.21
2023-09-15T09:36:34.278Z,20.21
2023-09-15T09:37:34.268Z,20.28
2023-09-15T09:38:34.256Z,20.31
2023-09-15T09:39:34.275Z,20.31
2023-09-15T09:40:34.257Z,20.31
2023-09-15T09:41:34.201Z,20.31
2023-09-15T09:42:34.221Z,20.40
2023-09-15T09:43:34.191Z,20.44
2023-09-15T09:44:34.173Z,20.44
2023-09-15T09:45:34.250Z,20.44
2023-09-15T09:46:34.176Z,20.47
2023-09-15T09:47:34.161Z,20.50
2023-09-15T09:48:34.145Z,20.53
2023-09-15T09:49:34.167Z,20.52
2023-09-15T09:50:34.118Z,20.50
2023-09-15T09:51:34.147Z,20.50
2023-09-15T09:52:34.084Z,20.55
2023-09-15T09:53:34.083Z,20.56
2023-09-15T09:54:34.128Z,20.55
2023-09-15T09:55:34.106Z,20.56
2023-09-15T09:56:34.046Z,20.57
2023-09-15T09:57:34.109Z,20.60
2023-09-15T09:58:34.035Z,20.60
2023-09-15T09:59:34.027Z,20.65
2023-09-15T10:00:34.040Z,20.62
2023-09-15T10:01:34.041Z,20.65
2023-09-15T10:02:36.415Z,20.57
2023-09-15T10:03:34.048Z,20.56
2023-09-15T10:04:34.016Z,20.47
2023-09-15T10:05:33.963Z,20.44
2023-09-15T10:06:33.969Z,20.44
2023-09-15T10:07:33.973Z,20.44
2023-09-15T10:08:33.904Z,20.48
2023-09-15T10:09:33.945Z,20.47
2023-09-15T10:10:33.913Z,20.47
2023-09-15T10:11:33.911Z,20.50
2023-09-15T10:12:33.972Z,20.48
2023-09-15T10:13:33.918Z,20.48
2023-09-15T10:14:33.864Z,20.44
2023-09-15T10:15:34.089Z,20.43
2023-09-15T10:16:33.887Z,20.47
2023-09-15T10:17:33.838Z,20.43
2023-09-15T10:18:33.875Z,20.44
2023-09-15T10:19:33.844Z,20.44
2023-09-15T10:20:33.863Z,20.50
2023-09-15T10:21:33.885Z,20.50
2023-09-15T10:22:33.799Z,20.55
2023-09-15T10:23:33.768Z,20.59
2023-09-15T10:24:33.805Z,20.56
2023-09-15T10:25:33.714Z,20.56
2023-09-15T10:26:33.730Z,20.44
2023-09-15T10:27:33.770Z,20.33
2023-09-15T10:29:33.709Z,20.37
2023-09-15T10:30:33.747Z,20.40
2023-09-15T10:31:33.771Z,20.31
2023-09-15T10:32:33.655Z,20.33
2023-09-15T10:33:33.755Z,20.41
2023-09-15T10:34:33.639Z,20.43
2023-09-15T10:35:33.643Z,20.43
2023-09-15T10:36:33.662Z,20.50
2023-09-15T10:37:33.607Z,20.48
2023-09-15T10:38:33.586Z,20.56
2023-09-15T10:39:33.611Z,20.55
2023-09-15T10:40:33.571Z,20.59
2023-09-15T10:41:33.574Z,20.60
2023-09-15T10:42:33.549Z,20.65
2023-09-15T10:43:33.570Z,20.66
2023-09-15T10:44:33.518Z,20.69
2023-09-15T10:45:33.548Z,20.71
2023-09-15T10:46:33.655Z,20.71
2023-09-15T10:47:33.521Z,20.77
2023-09-15T10:48:33.532Z,20.74
2023-09-15T10:49:33.477Z,20.74
2023-09-15T10:50:33.460Z,20.72
2023-09-15T10:51:33.577Z,20.75
2023-09-15T10:52:33.472Z,20.65
2023-09-15T10:53:33.441Z,20.72
2023-09-15T10:54:33.500Z,20.66
2023-09-15T10:55:33.417Z,20.71
2023-09-15T10:56:33.414Z,20.77
2023-09-15T10:57:33.398Z,20.85
2023-09-15T10:58:33.374Z,20.92
2023-09-15T10:59:33.369Z,20.96
2023-09-15T11:00:33.360Z,21.00
2023-09-15T11:01:35.974Z,21.05
2023-09-15T11:02:33.324Z,21.11
2023-09-15T11:03:33.366Z,21.10
2023-09-15T11:04:33.405Z,21.05
2023-09-15T11:05:33.330Z,20.95
2023-09-15T11:06:33.402Z,21.02
2023-09-15T11:07:33.302Z,20.95
2023-09-15T11:08:33.269Z,21.02
2023-09-15T11:09:33.274Z,20.89
2023-09-15T11:10:33.325Z,20.81
2023-09-15T11:11:33.236Z,20.77
2023-09-15T11:12:33.218Z,20.85
2023-09-15T11:13:33.197Z,20.92
2023-09-15T11:14:33.197Z,20.93
2023-09-15T11:15:33.257Z,20.97
2023-09-15T11:16:33.282Z,20.99
2023-09-15T11:17:33.266Z,21.02
2023-09-15T11:18:33.183Z,21.03
2023-09-15T11:19:33.149Z,21.05
2023-09-15T11:20:33.170Z,21.11
2023-09-15T11:21:33.190Z,21.10
2023-09-15T11:22:33.102Z,21.17
2023-09-15T11:23:33.786Z,21.20
2023-09-15T11:24:33.138Z,21.26
2023-09-15T11:25:33.070Z,21.29
2023-09-15T11:26:33.090Z,21.30
2023-09-15T11:27:33.070Z,21.33
2023-09-15T11:28:33.062Z,21.32
2023-09-15T11:29:33.198Z,21.36
2023-09-15T11:30:33.109Z,21.45
2023-09-15T11:31:33.022Z,21.48
2023-09-15T11:32:33.019Z,21.55
2023-09-15T11:33:33.048Z,21.57
2023-09-15T11:34:33.131Z,21.59
2023-09-15T11:35:32.990Z,21.63
2023-09-15T11:36:33.020Z,21.70
2023-09-15T11:37:33.014Z,21.67
2023-09-15T11:38:32.969Z,21.70
2023-09-15T11:39:32.976Z,21.74
2023-09-15T11:40:32.940Z,21.77
2023-09-15T11:41:32.911Z,21.82
2023-09-15T11:42:34.171Z,21.82
2023-09-15T11:43:32.883Z,21.84
2023-09-15T11:44:32.880Z,21.85
2023-09-15T11:45:32.991Z,21.85
2023-09-15T11:46:32.878Z,21.79
2023-09-15T11:47:32.902Z,21.79
2023-09-15T11:48:32.896Z,21.76
2023-09-15T11:49:32.833Z,21.76
2023-09-15T11:50:32.812Z,21.79
2023-09-15T11:51:32.821Z,21.77
2023-09-15T11:52:32.996Z,21.77
2023-09-15T11:53:32.876Z,21.77
2023-09-15T11:54:32.783Z,21.82
2023-09-15T11:55:32.765Z,21.84
2023-09-15T11:56:32.760Z,21.84
2023-09-15T11:57:32.806Z,21.88
2023-09-15T11:58:32.749Z,21.89
2023-09-15T11:59:32.719Z,21.89
2023-09-15T12:00:32.737Z,21.92
2023-09-15T12:01:32.772Z,21.93
2023-09-15T12:02:32.715Z,21.98
2023-09-15T12:03:32.943Z,22.01
2023-09-15T12:04:32.769Z,22.04
2023-09-15T12:05:32.630Z,22.04
2023-09-15T12:06:32.646Z,22.11
2023-09-15T12:07:32.645Z,22.10
2023-09-15T12:08:32.654Z,22.04
2023-09-15T12:09:32.606Z,22.05
2023-09-15T12:10:32.599Z,22.04
2023-09-15T12:11:32.579Z,22.07
2023-09-15T12:12:32.925Z,22.08
2023-09-15T12:13:32.580Z,22.10
2023-09-15T12:14:32.516Z,22.14
2023-09-15T12:15:32.659Z,22.14
2023-09-15T12:16:32.563Z,22.20
2023-09-15T12:17:32.542Z,22.19
2023-09-15T12:18:32.518Z,22.22
2023-09-15T12:19:32.495Z,22.25
2023-09-15T12:20:32.499Z,22.25
2023-09-15T12:21:32.553Z,22.33
2023-09-15T12:22:32.515Z,22.35
2023-09-15T12:23:32.495Z,22.38
2023-09-15T12:24:32.458Z,22.44
2023-09-15T12:25:32.430Z,22.41
2023-09-15T12:26:32.432Z,22.44
2023-09-15T12:27:32.436Z,22.51
2023-09-15T12:28:32.416Z,22.63
2023-09-15T12:29:32.366Z,22.66
2023-09-15T12:30:32.413Z,22.73
2023-09-15T12:31:32.371Z,22.85
2023-09-15T12:32:32.533Z,22.95
2023-09-15T12:33:32.393Z,22.93
2023-09-15T12:34:32.442Z,22.87
2023-09-15T12:35:32.370Z,22.91
2023-09-15T12:36:32.311Z,22.87
2023-09-15T12:37:38.992Z,22.93
2023-09-15T12:38:32.525Z,22.93
2023-09-15T12:39:32.426Z,22.87
2023-09-15T12:40:32.239Z,22.91
2023-09-15T12:41:32.252Z,22.83
2023-09-15T12:42:32.246Z,22.80
2023-09-15T12:43:32.234Z,22.78
2023-09-15T12:44:32.218Z,22.80
2023-09-15T12:45:32.218Z,22.77
2023-09-15T12:46:32.261Z,22.75
2023-09-15T12:47:32.248Z,22.77
2023-09-15T12:48:32.276Z,22.80
2023-09-15T12:49:32.214Z,22.73
2023-09-15T12:50:32.151Z,22.75
2023-09-15T12:51:32.170Z,22.75
2023-09-15T12:52:32.135Z,22.77
2023-09-15T12:53:32.141Z,22.83
2023-09-15T12:54:32.137Z,22.77
2023-09-15T12:55:32.095Z,22.83